sensor_id;sensor_type;location;lat;lon;timestamp;temperature;humidity
1165;DHT22;571;50.930;6.926;2023-03-17T03:47:18;9.00;88.40
1165;DHT22;571;50.930;6.926;2023-03-17T03:49:45;8.90;89.10
1165;DHT22;571;50.930;6.926;2023-03-17T03:52:11;8.80;89.00
1165;DHT22;571;50.930;6.926;2023-03-17T03:54:38;8.90;89.00
1165;DHT22;571;50.930;6.926;2023-03-17T03:57:05;8.90;89.20
1165;DHT22;571;50.930;6.926;2023-03-17T03:59:32;9.00;88.40
1165;DHT22;571;50.930;6.926;2023-03-17T04:01:59;9.00;88.20
1165;DHT22;571;50.930;6.926;2023-03-17T04:04:27;8.90;88.70
1165;DHT22;571;50.930;6.926;2023-03-17T04:06:53;9.00;88.30
1165;DHT22;571;50.930;6.926;2023-03-17T04:09:20;9.00;88.30
1165;DHT22;571;50.930;6.926;2023-03-17T04:11:47;8.90;88.50
1165;DHT22;571;50.930;6.926;2023-03-17T04:14:13;9.00;88.40
1165;DHT22;571;50.930;6.926;2023-03-17T04:16:40;9.00;87.80
1165;DHT22;571;50.930;6.926;2023-03-17T04:19:07;8.90;88.40
1165;DHT22;571;50.930;6.926;2023-03-17T04:21:35;8.90;88.40
1165;DHT22;571;50.930;6.926;2023-03-17T04:24:02;8.90;88.60
1165;DHT22;571;50.930;6.926;2023-03-17T04:26:29;8.90;88.60
1165;DHT22;571;50.930;6.926;2023-03-17T04:28:56;8.90;88.80
1165;DHT22;571;50.930;6.926;2023-03-17T04:31:23;8.90;88.40
1165;DHT22;571;50.930;6.926;2023-03-17T04:33:50;8.90;88.50
1165;DHT22;571;50.930;6.926;2023-03-17T04:36:19;8.90;88.30
1165;DHT22;571;50.930;6.926;2023-03-17T04:38:47;9.00;88.00
1165;DHT22;571;50.930;6.926;2023-03-17T04:41:14;9.10;87.70
1165;DHT22;571;50.930;6.926;2023-03-17T04:43:41;9.00;87.60
1165;DHT22;571;50.930;6.926;2023-03-17T04:46:08;9.00;87.50
1165;DHT22;571;50.930;6.926;2023-03-17T04:48:35;8.90;88.30
1165;DHT22;571;50.930;6.926;2023-03-17T04:51:02;8.90;88.30
1165;DHT22;571;50.930;6.926;2023-03-17T04:53:28;8.80;88.70
1165;DHT22;571;50.930;6.926;2023-03-17T04:55:56;8.90;88.60
1165;DHT22;571;50.930;6.926;2023-03-17T04:58:23;8.80;88.40
1165;DHT22;571;50.930;6.926;2023-03-17T05:00:50;8.80;88.90
1165;DHT22;571;50.930;6.926;2023-03-17T05:03:17;8.70;89.00
1165;DHT22;571;50.930;6.926;2023-03-17T05:05:44;8.80;89.00
1165;DHT22;571;50.930;6.926;2023-03-17T05:08:11;8.80;88.40
1165;DHT22;571;50.930;6.926;2023-03-17T05:10:38;8.80;88.80
1165;DHT22;571;50.930;6.926;2023-03-17T05:13:06;8.80;88.60
1165;DHT22;571;50.930;6.926;2023-03-17T05:15:33;8.90;88.00
1165;DHT22;571;50.930;6.926;2023-03-17T05:18:00;8.90;88.30
1165;DHT22;571;50.930;6.926;2023-03-17T05:20:27;8.80;88.50
1165;DHT22;571;50.930;6.926;2023-03-17T05:22:54;8.80;88.80
1165;DHT22;571;50.930;6.926;2023-03-17T05:25:21;8.70;89.30
1165;DHT22;571;50.930;6.926;2023-03-17T05:27:47;8.70;89.80
1165;DHT22;571;50.930;6.926;2023-03-17T05:30:16;8.70;89.10
1165;DHT22;571;50.930;6.926;2023-03-17T05:32:42;8.80;88.90
1165;DHT22;571;50.930;6.926;2023-03-17T05:35:09;8.80;88.80
1165;DHT22;571;50.930;6.926;2023-03-17T05:37:36;8.70;89.20
1165;DHT22;571;50.930;6.926;2023-03-17T05:40:03;8.70;89.70
1165;DHT22;571;50.930;6.926;2023-03-17T05:42:30;8.70;89.30
1165;DHT22;571;50.930;6.926;2023-03-17T05:44:57;8.70;89.30
1165;DHT22;571;50.930;6.926;2023-03-17T05:47:25;8.80;89.00
1165;DHT22;571;50.930;6.926;2023-03-17T05:49:52;8.80;88.60
1165;DHT22;571;50.930;6.926;2023-03-17T05:52:18;8.80;89.00
1165;DHT22;571;50.930;6.926;2023-03-17T05:54:45;8.80;89.00
1165;DHT22;571;50.930;6.926;2023-03-17T05:57:13;8.70;88.80
1165;DHT22;571;50.930;6.926;2023-03-17T05:59:40;8.80;88.70
1165;DHT22;571;50.930;6.926;2023-03-17T06:02:08;8.90;88.80
1165;DHT22;571;50.930;6.926;2023-03-17T06:04:37;8.80;89.10
1165;DHT22;571;50.930;6.926;2023-03-17T06:07:04;8.90;88.60
1165;DHT22;571;50.930;6.926;2023-03-17T06:09:31;8.90;88.60
1165;DHT22;571;50.930;6.926;2023-03-17T06:11:59;8.90;88.60
1165;DHT22;571;50.930;6.926;2023-03-17T06:14:26;9.00;88.50
1165;DHT22;571;50.930;6.926;2023-03-17T06:16:52;9.00;88.40
1165;DHT22;571;50.930;6.926;2023-03-17T06:19:19;8.90;88.80
1165;DHT22;571;50.930;6.926;2023-03-17T06:21:47;8.90;88.90
1165;DHT22;571;50.930;6.926;2023-03-17T06:24:14;8.90;88.70
1165;DHT22;571;50.930;6.926;2023-03-17T06:26:41;9.00;88.40
1165;DHT22;571;50.930;6.926;2023-03-17T06:29:09;9.10;88.20
1165;DHT22;571;50.930;6.926;2023-03-17T06:31:37;9.00;88.70
1165;DHT22;571;50.930;6.926;2023-03-17T06:34:05;9.00;88.90
1165;DHT22;571;50.930;6.926;2023-03-17T06:36:31;9.00;88.70
1165;DHT22;571;50.930;6.926;2023-03-17T06:39:00;9.10;88.30
1165;DHT22;571;50.930;6.926;2023-03-17T06:41:27;9.20;88.10
1165;DHT22;571;50.930;6.926;2023-03-17T06:43:53;9.20;88.20
1165;DHT22;571;50.930;6.926;2023-03-17T06:46:20;9.30;87.90
1165;DHT22;571;50.930;6.926;2023-03-17T06:48:47;9.30;87.80
1165;DHT22;571;50.930;6.926;2023-03-17T06:51:14;9.30;87.60
1165;DHT22;571;50.930;6.926;2023-03-17T06:53:40;9.40;87.40
1165;DHT22;571;50.930;6.926;2023-03-17T06:56:08;9.40;87.60
1165;DHT22;571;50.930;6.926;2023-03-17T06:58:35;9.40;87.20
1165;DHT22;571;50.930;6.926;2023-03-17T07:01:02;9.40;87.30
1165;DHT22;571;50.930;6.926;2023-03-17T07:03:29;9.50;87.50
1165;DHT22;571;50.930;6.926;2023-03-17T07:05:57;9.50;88.10
1165;DHT22;571;50.930;6.926;2023-03-17T07:08:24;9.50;87.70
1165;DHT22;571;50.930;6.926;2023-03-17T07:10:53;9.50;87.60
1165;DHT22;571;50.930;6.926;2023-03-17T07:13:21;9.50;87.40
1165;DHT22;571;50.930;6.926;2023-03-17T07:15:49;9.50;87.00
1165;DHT22;571;50.930;6.926;2023-03-17T07:18:16;9.60;86.90
1165;DHT22;571;50.930;6.926;2023-03-17T07:20:43;9.60;87.50
1165;DHT22;571;50.930;6.926;2023-03-17T07:23:14;9.60;87.40
1165;DHT22;571;50.930;6.926;2023-03-17T07:25:41;9.80;86.60
1165;DHT22;571;50.930;6.926;2023-03-17T07:28:10;9.80;86.40
1165;DHT22;571;50.930;6.926;2023-03-17T07:30:38;9.80;86.50
1165;DHT22;571;50.930;6.926;2023-03-17T07:33:05;9.80;86.70
1165;DHT22;571;50.930;6.926;2023-03-17T07:35:31;9.80;86.30
1165;DHT22;571;50.930;6.926;2023-03-17T07:37:58;9.90;86.50
1165;DHT22;571;50.930;6.926;2023-03-17T07:40:25;10.00;85.00
1165;DHT22;571;50.930;6.926;2023-03-17T07:42:52;9.90;86.70
1165;DHT22;571;50.930;6.926;2023-03-17T07:45:19;10.00;85.00
1165;DHT22;571;50.930;6.926;2023-03-17T07:47:47;10.00;85.20
1165;DHT22;571;50.930;6.926;2023-03-17T07:50:14;10.10;85.20
1165;DHT22;571;50.930;6.926;2023-03-17T07:52:41;10.20;84.70
1165;DHT22;571;50.930;6.926;2023-03-17T07:55:08;10.30;84.30
1165;DHT22;571;50.930;6.926;2023-03-17T07:57:36;10.40;83.60
1165;DHT22;571;50.930;6.926;2023-03-17T08:00:04;10.50;84.20
1165;DHT22;571;50.930;6.926;2023-03-17T08:02:35;10.50;84.10
1165;DHT22;571;50.930;6.926;2023-03-17T08:05:03;10.60;84.30
1165;DHT22;571;50.930;6.926;2023-03-17T08:07:32;10.70;83.60
1165;DHT22;571;50.930;6.926;2023-03-17T08:09:59;10.90;82.50
1165;DHT22;571;50.930;6.926;2023-03-17T08:12:26;11.00;82.70
1165;DHT22;571;50.930;6.926;2023-03-17T08:14:52;11.00;82.50
1165;DHT22;571;50.930;6.926;2023-03-17T08:17:19;11.10;82.40
1165;DHT22;571;50.930;6.926;2023-03-17T08:19:48;11.10;83.00
1165;DHT22;571;50.930;6.926;2023-03-17T08:22:17;11.10;82.80
1165;DHT22;571;50.930;6.926;2023-03-17T08:24:43;11.30;82.30
1165;DHT22;571;50.930;6.926;2023-03-17T08:27:11;11.40;82.00
1165;DHT22;571;50.930;6.926;2023-03-17T08:29:38;11.50;81.80
1165;DHT22;571;50.930;6.926;2023-03-17T08:32:05;11.50;83.00
1165;DHT22;571;50.930;6.926;2023-03-17T08:34:32;11.50;82.70
1165;DHT22;571;50.930;6.926;2023-03-17T08:37:01;11.70;82.20
1165;DHT22;571;50.930;6.926;2023-03-17T08:39:29;11.80;82.10
1165;DHT22;571;50.930;6.926;2023-03-17T08:41:56;12.00;81.30
1165;DHT22;571;50.930;6.926;2023-03-17T08:44:23;12.10;81.10
1165;DHT22;571;50.930;6.926;2023-03-17T08:46:50;12.20;79.90
1165;DHT22;571;50.930;6.926;2023-03-17T08:49:17;12.30;80.10
1165;DHT22;571;50.930;6.926;2023-03-17T08:51:44;12.40;81.00
1165;DHT22;571;50.930;6.926;2023-03-17T08:54:11;12.50;80.30
1165;DHT22;571;50.930;6.926;2023-03-17T08:56:40;12.60;80.70
1165;DHT22;571;50.930;6.926;2023-03-17T08:59:08;12.60;80.10
1165;DHT22;571;50.930;6.926;2023-03-17T09:01:35;12.80;80.00
1165;DHT22;571;50.930;6.926;2023-03-17T09:04:02;12.80;79.60
1165;DHT22;571;50.930;6.926;2023-03-17T09:06:29;13.00;77.80
1165;DHT22;571;50.930;6.926;2023-03-17T09:08:56;13.00;77.30
1165;DHT22;571;50.930;6.926;2023-03-17T09:11:24;13.00;77.60
1165;DHT22;571;50.930;6.926;2023-03-17T09:13:53;12.90;77.90
1165;DHT22;571;50.930;6.926;2023-03-17T09:16:21;13.00;77.60
1165;DHT22;571;50.930;6.926;2023-03-17T09:18:48;13.00;77.20
1165;DHT22;571;50.930;6.926;2023-03-17T09:21:15;13.10;77.80
1165;DHT22;571;50.930;6.926;2023-03-17T09:23:42;13.20;76.00
1165;DHT22;571;50.930;6.926;2023-03-17T09:26:09;13.30;75.70
1165;DHT22;571;50.930;6.926;2023-03-17T09:28:54;13.30;75.90
1165;DHT22;571;50.930;6.926;2023-03-17T09:31:20;13.20;77.10
1165;DHT22;571;50.930;6.926;2023-03-17T09:33:47;13.20;77.20
1165;DHT22;571;50.930;6.926;2023-03-17T09:36:14;13.30;76.40
1165;DHT22;571;50.930;6.926;2023-03-17T09:38:41;13.40;76.80
1165;DHT22;571;50.930;6.926;2023-03-17T09:41:22;13.50;76.90
1165;DHT22;571;50.930;6.926;2023-03-17T09:43:58;13.50;77.00
1165;DHT22;571;50.930;6.926;2023-03-17T09:46:33;13.60;75.80
1165;DHT22;571;50.930;6.926;2023-03-17T09:49:06;13.70;75.90
1165;DHT22;571;50.930;6.926;2023-03-17T09:51:34;13.80;75.50
1165;DHT22;571;50.930;6.926;2023-03-17T09:54:02;14.00;74.50
1165;DHT22;571;50.930;6.926;2023-03-17T09:56:31;14.00;75.00
1165;DHT22;571;50.930;6.926;2023-03-17T09:59:05;14.00;74.70
1165;DHT22;571;50.930;6.926;2023-03-17T10:01:32;14.10;73.90
1165;DHT22;571;50.930;6.926;2023-03-17T10:04:00;14.20;74.30
1165;DHT22;571;50.930;6.926;2023-03-17T10:06:35;14.30;74.30
1165;DHT22;571;50.930;6.926;2023-03-17T10:09:17;14.30;74.80
1165;DHT22;571;50.930;6.926;2023-03-17T10:11:49;14.50;73.30
1165;DHT22;571;50.930;6.926;2023-03-17T10:14:26;14.50;72.30
1165;DHT22;571;50.930;6.926;2023-03-17T10:16:59;14.60;73.40
1165;DHT22;571;50.930;6.926;2023-03-17T10:19:29;14.80;72.90
1165;DHT22;571;50.930;6.926;2023-03-17T10:22:00;14.90;71.70
1165;DHT22;571;50.930;6.926;2023-03-17T10:24:31;14.90;71.60
1165;DHT22;571;50.930;6.926;2023-03-17T10:27:01;15.00;72.00
1165;DHT22;571;50.930;6.926;2023-03-17T10:29:32;15.10;71.50
1165;DHT22;571;50.930;6.926;2023-03-17T10:31:58;15.20;70.30
1165;DHT22;571;50.930;6.926;2023-03-17T10:34:27;15.20;70.90
1165;DHT22;571;50.930;6.926;2023-03-17T10:36:58;15.30;70.70
1165;DHT22;571;50.930;6.926;2023-03-17T10:39:26;15.30;69.40
1165;DHT22;571;50.930;6.926;2023-03-17T10:41:56;15.20;69.40
1165;DHT22;571;50.930;6.926;2023-03-17T10:44:39;15.10;70.10
1165;DHT22;571;50.930;6.926;2023-03-17T10:47:20;15.20;70.60
1165;DHT22;571;50.930;6.926;2023-03-17T10:49:48;15.30;70.80
1165;DHT22;571;50.930;6.926;2023-03-17T10:52:20;15.40;70.00
1165;DHT22;571;50.930;6.926;2023-03-17T10:54:48;15.40;70.00
1165;DHT22;571;50.930;6.926;2023-03-17T10:57:17;15.40;70.20
1165;DHT22;571;50.930;6.926;2023-03-17T10:59:50;15.60;69.60
1165;DHT22;571;50.930;6.926;2023-03-17T11:02:23;15.60;69.60
1165;DHT22;571;50.930;6.926;2023-03-17T11:04:53;15.60;69.50
1165;DHT22;571;50.930;6.926;2023-03-17T11:07:26;15.60;69.30
1165;DHT22;571;50.930;6.926;2023-03-17T11:09:57;15.60;70.00
1165;DHT22;571;50.930;6.926;2023-03-17T11:12:28;15.60;70.10
1165;DHT22;571;50.930;6.926;2023-03-17T11:14:59;15.80;69.90
1165;DHT22;571;50.930;6.926;2023-03-17T11:17:36;16.00;68.50
1165;DHT22;571;50.930;6.926;2023-03-17T11:20:23;16.00;69.20
1165;DHT22;571;50.930;6.926;2023-03-17T11:22:55;16.10;69.30
1165;DHT22;571;50.930;6.926;2023-03-17T11:25:23;16.10;69.30
1165;DHT22;571;50.930;6.926;2023-03-17T11:27:55;16.20;68.40
1165;DHT22;571;50.930;6.926;2023-03-17T11:30:31;16.20;67.50
1165;DHT22;571;50.930;6.926;2023-03-17T11:33:04;16.30;68.20
1165;DHT22;571;50.930;6.926;2023-03-17T11:35:45;16.30;66.30
1165;DHT22;571;50.930;6.926;2023-03-17T11:38:22;16.30;67.60
1165;DHT22;571;50.930;6.926;2023-03-17T11:41:13;16.40;67.70
1165;DHT22;571;50.930;6.926;2023-03-17T11:43:50;16.50;66.90
1165;DHT22;571;50.930;6.926;2023-03-17T11:46:27;16.80;67.30
1165;DHT22;571;50.930;6.926;2023-03-17T11:48:59;17.00;65.60
1165;DHT22;571;50.930;6.926;2023-03-17T11:51:34;17.20;66.70
1165;DHT22;571;50.930;6.926;2023-03-17T11:54:08;17.60;65.90
1165;DHT22;571;50.930;6.926;2023-03-17T11:56:39;17.70;65.50
1165;DHT22;571;50.930;6.926;2023-03-17T11:59:14;18.00;65.00
1165;DHT22;571;50.930;6.926;2023-03-17T12:01:49;18.30;65.30
1165;DHT22;571;50.930;6.926;2023-03-17T12:04:25;18.50;64.60
1165;DHT22;571;50.930;6.926;2023-03-17T12:06:59;18.70;63.50
1165;DHT22;571;50.930;6.926;2023-03-17T12:09:30;18.80;61.80
1165;DHT22;571;50.930;6.926;2023-03-17T12:12:01;18.80;60.10
1165;DHT22;571;50.930;6.926;2023-03-17T12:14:32;18.80;60.50
1165;DHT22;571;50.930;6.926;2023-03-17T12:17:08;18.90;60.60
1165;DHT22;571;50.930;6.926;2023-03-17T12:19:41;18.90;59.80
1165;DHT22;571;50.930;6.926;2023-03-17T12:22:16;18.70;59.90
1165;DHT22;571;50.930;6.926;2023-03-17T12:24:49;18.60;59.20
1165;DHT22;571;50.930;6.926;2023-03-17T12:27:23;18.60;59.10
1165;DHT22;571;50.930;6.926;2023-03-17T12:29:54;18.70;59.50
1165;DHT22;571;50.930;6.926;2023-03-17T12:32:27;18.70;59.40
1165;DHT22;571;50.930;6.926;2023-03-17T12:34:59;18.80;61.20
1165;DHT22;571;50.930;6.926;2023-03-17T12:37:29;19.00;59.10
1165;DHT22;571;50.930;6.926;2023-03-17T12:39:59;19.10;59.60
1165;DHT22;571;50.930;6.926;2023-03-17T12:42:36;19.10;59.70
1165;DHT22;571;50.930;6.926;2023-03-17T12:45:32;19.20;59.40
1165;DHT22;571;50.930;6.926;2023-03-17T12:48:27;19.30;58.90
1165;DHT22;571;50.930;6.926;2023-03-17T12:51:08;19.50;58.70
1165;DHT22;571;50.930;6.926;2023-03-17T12:53:43;19.50;60.30
1165;DHT22;571;50.930;6.926;2023-03-17T12:56:17;19.70;58.30
1165;DHT22;571;50.930;6.926;2023-03-17T12:58:45;19.80;57.60
1165;DHT22;571;50.930;6.926;2023-03-17T13:01:19;19.90;59.10
1165;DHT22;571;50.930;6.926;2023-03-17T13:04:03;20.20;58.40
1165;DHT22;571;50.930;6.926;2023-03-17T13:06:37;20.40;57.70
1165;DHT22;571;50.930;6.926;2023-03-17T13:15:22;20.90;56.20
1165;DHT22;571;50.930;6.926;2023-03-17T13:18:19;20.90;55.60
1165;DHT22;571;50.930;6.926;2023-03-17T13:21:10;21.00;55.50
1165;DHT22;571;50.930;6.926;2023-03-17T13:23:41;20.80;56.40
1165;DHT22;571;50.930;6.926;2023-03-17T13:26:11;20.60;54.90
1165;DHT22;571;50.930;6.926;2023-03-17T13:28:44;20.80;55.40
1165;DHT22;571;50.930;6.926;2023-03-17T13:31:33;20.80;55.50
1165;DHT22;571;50.930;6.926;2023-03-17T13:34:12;20.90;54.40
1165;DHT22;571;50.930;6.926;2023-03-17T13:36:46;20.70;54.20
1165;DHT22;571;50.930;6.926;2023-03-17T13:39:50;20.50;54.50
1165;DHT22;571;50.930;6.926;2023-03-17T13:45:30;20.40;55.60
1165;DHT22;571;50.930;6.926;2023-03-17T13:48:24;20.30;55.40
1165;DHT22;571;50.930;6.926;2023-03-17T13:50:56;20.40;55.50
1165;DHT22;571;50.930;6.926;2023-03-17T13:53:28;20.40;55.40
1165;DHT22;571;50.930;6.926;2023-03-17T13:56:09;20.20;54.90
1165;DHT22;571;50.930;6.926;2023-03-17T13:58:50;20.10;55.10
1165;DHT22;571;50.930;6.926;2023-03-17T14:01:19;20.20;55.20
1165;DHT22;571;50.930;6.926;2023-03-17T14:03:48;20.00;53.80
1165;DHT22;571;50.930;6.926;2023-03-17T14:06:17;19.90;55.80
1165;DHT22;571;50.930;6.926;2023-03-17T14:08:49;19.80;56.10
1165;DHT22;571;50.930;6.926;2023-03-17T14:11:30;19.70;55.60
1165;DHT22;571;50.930;6.926;2023-03-17T14:14:09;19.80;57.00
1165;DHT22;571;50.930;6.926;2023-03-17T14:16:42;19.90;55.80
1165;DHT22;571;50.930;6.926;2023-03-17T14:19:16;20.00;55.10
1165;DHT22;571;50.930;6.926;2023-03-17T14:21:45;19.70;55.70
1165;DHT22;571;50.930;6.926;2023-03-17T14:24:20;19.70;57.20
1165;DHT22;571;50.930;6.926;2023-03-17T14:26:47;19.70;56.70
1165;DHT22;571;50.930;6.926;2023-03-17T14:29:16;19.80;55.70
1165;DHT22;571;50.930;6.926;2023-03-17T14:31:46;19.70;55.70
1165;DHT22;571;50.930;6.926;2023-03-17T14:34:14;19.60;57.40
1165;DHT22;571;50.930;6.926;2023-03-17T14:36:41;19.50;56.40
1165;DHT22;571;50.930;6.926;2023-03-17T14:39:20;19.50;57.50
1165;DHT22;571;50.930;6.926;2023-03-17T14:41:56;19.60;58.70
1165;DHT22;571;50.930;6.926;2023-03-17T14:44:24;19.70;58.90
1165;DHT22;571;50.930;6.926;2023-03-17T14:47:00;19.50;57.70
1165;DHT22;571;50.930;6.926;2023-03-17T14:49:30;19.50;58.80
1165;DHT22;571;50.930;6.926;2023-03-17T14:52:36;19.50;58.40
1165;DHT22;571;50.930;6.926;2023-03-17T14:55:36;19.30;57.40
1165;DHT22;571;50.930;6.926;2023-03-17T14:59:19;19.10;58.30
1165;DHT22;571;50.930;6.926;2023-03-17T15:02:33;18.90;58.60
1165;DHT22;571;50.930;6.926;2023-03-17T15:20:04;18.50;59.90
1165;DHT22;571;50.930;6.926;2023-03-17T15:23:38;18.40;59.70
1165;DHT22;571;50.930;6.926;2023-03-17T15:27:03;18.40;60.80
1165;DHT22;571;50.930;6.926;2023-03-17T15:30:21;18.30;60.70
1165;DHT22;571;50.930;6.926;2023-03-17T15:37:01;18.30;60.00
1165;DHT22;571;50.930;6.926;2023-03-17T15:43:04;17.90;61.20
1165;DHT22;571;50.930;6.926;2023-03-17T15:49:37;17.80;60.00
1165;DHT22;571;50.930;6.926;2023-03-17T15:59:05;17.50;60.60
1165;DHT22;571;50.930;6.926;2023-03-17T16:02:28;17.50;61.90
1165;DHT22;571;50.930;6.926;2023-03-17T16:18:05;17.30;61.80
1165;DHT22;571;50.930;6.926;2023-03-17T16:21:18;17.30;62.00
1165;DHT22;571;50.930;6.926;2023-03-17T16:23:50;17.00;61.40
1165;DHT22;571;50.930;6.926;2023-03-17T16:30:53;16.80;62.30
1165;DHT22;571;50.930;6.926;2023-03-17T16:36:32;16.70;63.40
1165;DHT22;571;50.930;6.926;2023-03-17T17:15:31;15.80;74.70
1165;DHT22;571;50.930;6.926;2023-03-17T17:21:51;15.60;76.50
1165;DHT22;571;50.930;6.926;2023-03-17T17:24:32;15.60;76.20
1165;DHT22;571;50.930;6.926;2023-03-17T17:26:59;15.60;76.40
1165;DHT22;571;50.930;6.926;2023-03-17T17:29:36;15.40;77.80
1165;DHT22;571;50.930;6.926;2023-03-17T17:35:52;15.60;77.20
1165;DHT22;571;50.930;6.926;2023-03-17T17:49:36;15.50;76.30
1165;DHT22;571;50.930;6.926;2023-03-17T18:02:16;15.50;75.00
1165;DHT22;571;50.930;6.926;2023-03-17T18:09:22;15.40;76.80
1165;DHT22;571;50.930;6.926;2023-03-17T19:33:58;14.80;81.00
1165;DHT22;571;50.930;6.926;2023-03-17T19:37:23;14.80;81.40
1165;DHT22;571;50.930;6.926;2023-03-17T19:44:40;14.90;80.00
1165;DHT22;571;50.930;6.926;2023-03-17T20:08:47;14.70;81.90
1165;DHT22;571;50.930;6.926;2023-03-17T20:11:59;14.50;83.40
1165;DHT22;571;50.930;6.926;2023-03-17T20:15:21;14.50;87.00
1165;DHT22;571;50.930;6.926;2023-03-17T20:25:18;14.60;86.40
1165;DHT22;571;50.930;6.926;2023-03-17T20:28:18;14.60;87.20
1165;DHT22;571;50.930;6.926;2023-03-17T20:31:20;14.40;87.60
1165;DHT22;571;50.930;6.926;2023-03-17T20:33:53;14.50;88.90
1165;DHT22;571;50.930;6.926;2023-03-17T20:36:38;14.30;90.10
1165;DHT22;571;50.930;6.926;2023-03-17T20:39:23;14.20;91.50
1165;DHT22;571;50.930;6.926;2023-03-17T20:41:52;14.30;91.40
1165;DHT22;571;50.930;6.926;2023-03-17T20:47:39;13.90;94.00
1165;DHT22;571;50.930;6.926;2023-03-17T20:50:10;13.60;95.60
1165;DHT22;571;50.930;6.926;2023-03-17T20:52:43;13.50;95.40
1165;DHT22;571;50.930;6.926;2023-03-17T20:55:12;13.80;96.30
1165;DHT22;571;50.930;6.926;2023-03-17T20:57:43;13.10;96.90
1165;DHT22;571;50.930;6.926;2023-03-17T21:00:14;13.10;96.60
1165;DHT22;571;50.930;6.926;2023-03-17T21:02:42;13.10;96.90
1165;DHT22;571;50.930;6.926;2023-03-17T21:05:12;13.10;97.00
1165;DHT22;571;50.930;6.926;2023-03-17T21:07:40;13.10;96.90
1165;DHT22;571;50.930;6.926;2023-03-17T21:10:08;13.20;96.80
1165;DHT22;571;50.930;6.926;2023-03-17T21:12:38;13.10;96.80
1165;DHT22;571;50.930;6.926;2023-03-17T21:15:08;13.20;96.40
1165;DHT22;571;50.930;6.926;2023-03-17T21:17:35;13.10;97.10
1165;DHT22;571;50.930;6.926;2023-03-17T21:20:04;13.10;96.90
1165;DHT22;571;50.930;6.926;2023-03-17T21:22:31;13.10;96.70
1165;DHT22;571;50.930;6.926;2023-03-17T21:25:01;13.10;97.30
1165;DHT22;571;50.930;6.926;2023-03-17T21:27:28;13.10;96.80
1165;DHT22;571;50.930;6.926;2023-03-17T21:29:54;13.10;97.40
1165;DHT22;571;50.930;6.926;2023-03-17T21:32:23;13.10;97.20
1165;DHT22;571;50.930;6.926;2023-03-17T21:34:50;13.10;97.50
1165;DHT22;571;50.930;6.926;2023-03-17T21:37:18;13.10;97.90
1165;DHT22;571;50.930;6.926;2023-03-17T21:39:57;12.90;98.40
1165;DHT22;571;50.930;6.926;2023-03-17T21:42:26;13.10;98.10
1165;DHT22;571;50.930;6.926;2023-03-17T21:44:56;13.20;98.20
1165;DHT22;571;50.930;6.926;2023-03-17T21:47:26;13.60;99.10
1165;DHT22;571;50.930;6.926;2023-03-17T21:50:02;13.10;98.30
1165;DHT22;571;50.930;6.926;2023-03-17T21:52:29;13.00;98.60
1165;DHT22;571;50.930;6.926;2023-03-17T21:54:56;13.00;98.20
1165;DHT22;571;50.930;6.926;2023-03-17T21:57:24;13.10;98.30
1165;DHT22;571;50.930;6.926;2023-03-17T21:59:51;13.10;98.40
1165;DHT22;571;50.930;6.926;2023-03-17T22:02:18;13.20;98.00
1165;DHT22;571;50.930;6.926;2023-03-17T22:04:47;13.30;97.60
1165;DHT22;571;50.930;6.926;2023-03-17T22:07:20;13.20;98.10
1165;DHT22;571;50.930;6.926;2023-03-17T22:09:48;13.20;98.30
1165;DHT22;571;50.930;6.926;2023-03-17T22:12:17;13.20;98.30
1165;DHT22;571;50.930;6.926;2023-03-17T22:14:45;13.10;98.50
1165;DHT22;571;50.930;6.926;2023-03-17T22:17:12;13.30;97.90
1165;DHT22;571;50.930;6.926;2023-03-17T22:19:39;13.10;98.30
1165;DHT22;571;50.930;6.926;2023-03-17T22:22:08;13.10;98.30
1165;DHT22;571;50.930;6.926;2023-03-17T22:24:35;13.10;98.50
1165;DHT22;571;50.930;6.926;2023-03-17T22:27:03;13.10;98.60
1165;DHT22;571;50.930;6.926;2023-03-17T22:29:32;13.10;98.40
1165;DHT22;571;50.930;6.926;2023-03-17T22:32:01;13.10;98.40
1165;DHT22;571;50.930;6.926;2023-03-17T22:34:28;13.10;98.60
1165;DHT22;571;50.930;6.926;2023-03-17T22:37:05;12.90;98.90
1165;DHT22;571;50.930;6.926;2023-03-17T22:39:36;13.00;98.70
1165;DHT22;571;50.930;6.926;2023-03-17T22:42:06;13.10;98.70
1165;DHT22;571;50.930;6.926;2023-03-17T22:44:33;13.00;99.20
1165;DHT22;571;50.930;6.926;2023-03-17T22:47:03;13.00;99.30
1165;DHT22;571;50.930;6.926;2023-03-17T22:49:30;13.00;99.30
1165;DHT22;571;50.930;6.926;2023-03-17T22:51:58;12.90;99.90
1165;DHT22;571;50.930;6.926;2023-03-17T22:54:26;12.90;99.90
1165;DHT22;571;50.930;6.926;2023-03-17T22:57:13;12.70;99.90
1165;DHT22;571;50.930;6.926;2023-03-17T23:28:25;12.90;99.50
1165;DHT22;571;50.930;6.926;2023-03-17T23:30:54;12.90;99.90
1165;DHT22;571;50.930;6.926;2023-03-17T23:33:40;12.80;99.90
1165;DHT22;571;50.930;6.926;2023-03-17T23:36:15;12.40;99.40
1165;DHT22;571;50.930;6.926;2023-03-17T23:38:45;12.80;99.90
1165;DHT22;571;50.930;6.926;2023-03-17T23:41:18;13.20;99.90
1165;DHT22;571;50.930;6.926;2023-03-17T23:43:52;12.70;99.90
1165;DHT22;571;50.930;6.926;2023-03-17T23:49:00;12.10;99.90
1165;DHT22;571;50.930;6.926;2023-03-17T23:51:31;12.60;99.90
1165;DHT22;571;50.930;6.926;2023-03-17T23:54:00;13.20;99.90
1165;DHT22;571;50.930;6.926;2023-03-17T23:56:36;12.90;99.90
1165;DHT22;571;50.930;6.926;2023-03-17T23:59:13;12.70;99.90
